SAM41B PADU-UHPP
Flight info
| Callsign | SAM41B |
|---|---|
| Flight time | 3h 23m |
| Altitude | 36000 |
| Route | ALEUT DCT CRYPT A342 PINSO/K0843F380 DCT PIRUT PIRUT5N |
| Aircraft | A319/M-SDE3FGHIRWY/LB1 |
Departure
| Time | 2026-04-20 10:54 |
|---|---|
| Airport | Tom Madsen (Dutch Harbor) Airport (PADU) |
Arrival
| Time | 2026-04-20 14:17 |
|---|---|
| Airport | Yelizovo Airport (UHPP) |
| Time | Latitude | Longitude | Altitude | Speed | Heading |
|---|---|---|---|---|---|
| 2026-04-20 10:38 | 53.89584 | -166.54238 | 21 ft | 0 kts | 271° |
| 2026-04-20 10:43 | 53.89584 | -166.54237 | 21 ft | 0 kts | 271° |
| 2026-04-20 10:51 | 53.89584 | -166.54259 | 21 ft | 6 kts | 271° |
| 2026-04-20 10:51 | 53.89568 | -166.54254 | 21 ft | 6 kts | 102° |
| 2026-04-20 10:51 | 53.89561 | -166.54127 | 23 ft | 12 kts | 87° |
| 2026-04-20 10:52 | 53.89583 | -166.53988 | 21 ft | 13 kts | 138° |
| 2026-04-20 10:52 | 53.89537 | -166.53925 | 20 ft | 1 kts | 162° |
| 2026-04-20 10:52 | 53.89523 | -166.53911 | 21 ft | 2 kts | 104° |
| 2026-04-20 10:52 | 53.89541 | -166.53921 | 20 ft | 1 kts | 318° |
| 2026-04-20 10:53 | 53.89543 | -166.53923 | 20 ft | 0 kts | 319° |
| 2026-04-20 10:53 | 53.89735 | -166.54241 | 23 ft | 90 kts | 315° |
| 2026-04-20 10:54 | 53.90401 | -166.55334 | 185 ft | 157 kts | 319° |
| 2026-04-20 10:54 | 53.91259 | -166.56496 | 1096 ft | 163 kts | 325° |
| 2026-04-20 10:54 | 53.92195 | -166.57646 | 2002 ft | 169 kts | 327° |
| 2026-04-20 10:54 | 53.93359 | -166.58125 | 2696 ft | 182 kts | 8° |
| 2026-04-20 10:55 | 53.94521 | -166.57195 | 3443 ft | 191 kts | 42° |
| 2026-04-20 10:55 | 53.95574 | -166.55728 | 4101 ft | 199 kts | 39° |
| 2026-04-20 10:55 | 53.96673 | -166.54251 | 4772 ft | 207 kts | 38° |
| 2026-04-20 10:55 | 53.97813 | -166.52727 | 5463 ft | 213 kts | 37° |
| 2026-04-20 10:56 | 53.98988 | -166.51148 | 6175 ft | 217 kts | 36° |
| 2026-04-20 10:56 | 54.00187 | -166.49551 | 6871 ft | 221 kts | 34° |
| 2026-04-20 10:56 | 54.01418 | -166.47927 | 7545 ft | 226 kts | 34° |
| 2026-04-20 10:56 | 54.02657 | -166.46275 | 8272 ft | 227 kts | 34° |
| 2026-04-20 10:57 | 54.04050 | -166.45098 | 8876 ft | 219 kts | 7° |
| 2026-04-20 10:57 | 54.05510 | -166.44846 | 9495 ft | 213 kts | 347° |
| 2026-04-20 10:57 | 54.06995 | -166.45415 | 9741 ft | 229 kts | 332° |
| 2026-04-20 10:57 | 54.08587 | -166.46384 | 10203 ft | 255 kts | 329° |
| 2026-04-20 10:58 | 54.10348 | -166.47426 | 10699 ft | 281 kts | 330° |
| 2026-04-20 10:58 | 54.12284 | -166.48528 | 11145 ft | 305 kts | 332° |
| 2026-04-20 10:58 | 54.14359 | -166.49669 | 11864 ft | 316 kts | 333° |
| 2026-04-20 10:58 | 54.16476 | -166.50809 | 12768 ft | 322 kts | 333° |
| 2026-04-20 10:59 | 54.18612 | -166.51950 | 13685 ft | 326 kts | 333° |
| 2026-04-20 10:59 | 54.20787 | -166.53126 | 14489 ft | 330 kts | 333° |
| 2026-04-20 10:59 | 54.22811 | -166.54829 | 15251 ft | 319 kts | 315° |
| 2026-04-20 10:59 | 54.24321 | -166.57516 | 16035 ft | 309 kts | 296° |
| 2026-04-20 11:00 | 54.25245 | -166.60776 | 16840 ft | 305 kts | 285° |
| 2026-04-20 11:00 | 54.26040 | -166.64170 | 17697 ft | 308 kts | 285° |
| 2026-04-20 11:00 | 54.26836 | -166.67559 | 18475 ft | 312 kts | 285° |
| 2026-04-20 11:00 | 54.27658 | -166.71064 | 19204 ft | 316 kts | 285° |
| 2026-04-20 11:01 | 54.28486 | -166.74581 | 19890 ft | 321 kts | 285° |
| 2026-04-20 11:01 | 54.29321 | -166.78120 | 20606 ft | 324 kts | 285° |
| 2026-04-20 11:01 | 54.30174 | -166.81731 | 21328 ft | 327 kts | 285° |
| 2026-04-20 11:01 | 54.31024 | -166.85331 | 22029 ft | 330 kts | 285° |
| 2026-04-20 11:02 | 54.31893 | -166.89008 | 22733 ft | 334 kts | 285° |
| 2026-04-20 11:02 | 54.32765 | -166.92708 | 23422 ft | 337 kts | 285° |
| 2026-04-20 11:02 | 54.33640 | -166.96433 | 24030 ft | 340 kts | 285° |
| 2026-04-20 11:02 | 54.34525 | -167.00217 | 24630 ft | 343 kts | 285° |
| 2026-04-20 11:03 | 54.35412 | -167.04024 | 25217 ft | 345 kts | 285° |
| 2026-04-20 11:03 | 54.36306 | -167.07869 | 25796 ft | 348 kts | 285° |
| 2026-04-20 11:03 | 54.37206 | -167.11737 | 26386 ft | 351 kts | 285° |
| 2026-04-20 11:03 | 54.38116 | -167.15654 | 26936 ft | 355 kts | 286° |
| 2026-04-20 11:04 | 54.39031 | -167.19599 | 27480 ft | 358 kts | 286° |
| 2026-04-20 11:04 | 54.39951 | -167.23584 | 28037 ft | 361 kts | 285° |
| 2026-04-20 11:04 | 54.40879 | -167.27624 | 28590 ft | 364 kts | 286° |
| 2026-04-20 11:04 | 54.41809 | -167.31661 | 29148 ft | 367 kts | 286° |
| 2026-04-20 11:05 | 54.42753 | -167.35760 | 29687 ft | 370 kts | 286° |
| 2026-04-20 11:05 | 54.43699 | -167.39886 | 30184 ft | 372 kts | 286° |
| 2026-04-20 11:05 | 54.44651 | -167.44045 | 30596 ft | 376 kts | 286° |
| 2026-04-20 11:05 | 54.45615 | -167.48257 | 30971 ft | 381 kts | 286° |
| 2026-04-20 11:06 | 54.46582 | -167.52493 | 31327 ft | 385 kts | 286° |
| 2026-04-20 11:06 | 54.47568 | -167.56825 | 31722 ft | 388 kts | 286° |
| 2026-04-20 11:06 | 54.48545 | -167.61117 | 32242 ft | 389 kts | 286° |
| 2026-04-20 11:06 | 54.49534 | -167.65476 | 32700 ft | 391 kts | 286° |
| 2026-04-20 11:07 | 54.50510 | -167.69797 | 33143 ft | 392 kts | 286° |
| 2026-04-20 11:07 | 54.51508 | -167.74212 | 33616 ft | 394 kts | 286° |
| 2026-04-20 11:07 | 54.52505 | -167.78624 | 34056 ft | 395 kts | 286° |
| 2026-04-20 11:07 | 54.53502 | -167.83041 | 34421 ft | 397 kts | 286° |
| 2026-04-20 11:08 | 54.54502 | -167.87479 | 34787 ft | 398 kts | 286° |
| 2026-04-20 11:08 | 54.55492 | -167.91893 | 35134 ft | 399 kts | 286° |
| 2026-04-20 11:08 | 54.56493 | -167.96368 | 35489 ft | 400 kts | 286° |
| 2026-04-20 11:08 | 54.57486 | -168.00821 | 35822 ft | 401 kts | 286° |
| 2026-04-20 11:09 | 54.58491 | -168.05339 | 35920 ft | 402 kts | 286° |
| 2026-04-20 11:09 | 54.60478 | -168.14336 | 35923 ft | 402 kts | 286° |
| 2026-04-20 11:10 | 54.62471 | -168.23362 | 35922 ft | 403 kts | 286° |
| 2026-04-20 11:10 | 54.64460 | -168.32406 | 35921 ft | 403 kts | 286° |
| 2026-04-20 11:11 | 54.66443 | -168.41448 | 35917 ft | 403 kts | 286° |
| 2026-04-20 11:11 | 54.68424 | -168.50529 | 35915 ft | 403 kts | 286° |
| 2026-04-20 11:12 | 54.70384 | -168.59547 | 35911 ft | 403 kts | 286° |
| 2026-04-20 11:12 | 54.72344 | -168.68625 | 35911 ft | 403 kts | 285° |
| 2026-04-20 11:13 | 54.74295 | -168.77716 | 35906 ft | 402 kts | 285° |
| 2026-04-20 11:13 | 54.76247 | -168.86840 | 35895 ft | 403 kts | 285° |
| 2026-04-20 11:14 | 54.78177 | -168.95909 | 35903 ft | 403 kts | 285° |
| 2026-04-20 11:14 | 54.80114 | -169.05037 | 35899 ft | 403 kts | 285° |
| 2026-04-20 11:15 | 54.82051 | -169.14166 | 35891 ft | 403 kts | 285° |
| 2026-04-20 11:15 | 54.83967 | -169.23270 | 35891 ft | 404 kts | 285° |
| 2026-04-20 11:16 | 54.85886 | -169.32438 | 35888 ft | 404 kts | 285° |
| 2026-04-20 11:16 | 54.87788 | -169.41606 | 35886 ft | 404 kts | 285° |
| 2026-04-20 11:17 | 54.89689 | -169.50787 | 35879 ft | 403 kts | 285° |
| 2026-04-20 11:17 | 54.91586 | -169.59983 | 35880 ft | 403 kts | 285° |
| 2026-04-20 11:18 | 54.93480 | -169.69144 | 35873 ft | 404 kts | 285° |
| 2026-04-20 11:18 | 54.95375 | -169.78378 | 35868 ft | 404 kts | 285° |
| 2026-04-20 11:19 | 54.96931 | -169.86020 | 35867 ft | 404 kts | 285° |
| 2026-04-20 11:19 | 54.99105 | -169.96773 | 35860 ft | 404 kts | 285° |
| 2026-04-20 11:20 | 55.00652 | -170.04472 | 35861 ft | 404 kts | 285° |
| 2026-04-20 11:20 | 55.02813 | -170.15210 | 35858 ft | 404 kts | 285° |
| 2026-04-20 11:21 | 55.04369 | -170.22976 | 35854 ft | 404 kts | 285° |
| 2026-04-20 11:21 | 55.06208 | -170.32224 | 35854 ft | 404 kts | 285° |
| 2026-04-20 11:22 | 55.08039 | -170.41460 | 35851 ft | 404 kts | 285° |
| 2026-04-20 11:22 | 55.09870 | -170.50750 | 35849 ft | 404 kts | 285° |
| 2026-04-20 11:23 | 55.11689 | -170.60010 | 35838 ft | 404 kts | 285° |
| 2026-04-20 11:23 | 55.13513 | -170.69345 | 35837 ft | 405 kts | 285° |
| 2026-04-20 11:24 | 55.15307 | -170.78620 | 35834 ft | 405 kts | 284° |
| 2026-04-20 11:24 | 55.16779 | -170.88079 | 35833 ft | 400 kts | 273° |
| 2026-04-20 11:25 | 55.16665 | -170.97699 | 35824 ft | 396 kts | 263° |
| 2026-04-20 11:25 | 55.16243 | -171.07346 | 35827 ft | 396 kts | 263° |
| 2026-04-20 11:26 | 55.15820 | -171.16910 | 35828 ft | 396 kts | 263° |
| 2026-04-20 11:26 | 55.15387 | -171.26511 | 35824 ft | 397 kts | 263° |
| 2026-04-20 11:27 | 55.14944 | -171.36152 | 35826 ft | 397 kts | 263° |
| 2026-04-20 11:27 | 55.14499 | -171.45749 | 35818 ft | 397 kts | 263° |
| 2026-04-20 11:28 | 55.14032 | -171.55401 | 35818 ft | 397 kts | 263° |
| 2026-04-20 11:28 | 55.13570 | -171.64996 | 35813 ft | 397 kts | 263° |
| 2026-04-20 11:29 | 55.13096 | -171.74649 | 35817 ft | 397 kts | 263° |
| 2026-04-20 11:29 | 55.12612 | -171.84286 | 35816 ft | 398 kts | 263° |
| 2026-04-20 11:30 | 55.12119 | -171.93923 | 35812 ft | 399 kts | 263° |
| 2026-04-20 11:30 | 55.11623 | -172.03560 | 35813 ft | 399 kts | 263° |
| 2026-04-20 11:31 | 55.11120 | -172.13214 | 35809 ft | 398 kts | 263° |
| 2026-04-20 11:31 | 55.10608 | -172.22805 | 35808 ft | 398 kts | 263° |
| 2026-04-20 11:32 | 55.10092 | -172.32427 | 35821 ft | 399 kts | 263° |
| 2026-04-20 11:32 | 55.09562 | -172.42100 | 35805 ft | 400 kts | 262° |
| 2026-04-20 11:33 | 55.09021 | -172.51767 | 35803 ft | 400 kts | 262° |
| 2026-04-20 11:33 | 55.08478 | -172.61410 | 35799 ft | 400 kts | 262° |
| 2026-04-20 11:34 | 55.07927 | -172.71080 | 35802 ft | 400 kts | 262° |
| 2026-04-20 11:34 | 55.07367 | -172.80729 | 35796 ft | 400 kts | 262° |
| 2026-04-20 11:35 | 55.06796 | -172.90399 | 35800 ft | 401 kts | 262° |
| 2026-04-20 11:35 | 55.06227 | -173.00025 | 35774 ft | 401 kts | 262° |
| 2026-04-20 11:36 | 55.05638 | -173.09730 | 35791 ft | 401 kts | 262° |
| 2026-04-20 11:36 | 55.05044 | -173.19386 | 35791 ft | 400 kts | 262° |
| 2026-04-20 11:37 | 55.04440 | -173.29047 | 35791 ft | 400 kts | 262° |
| 2026-04-20 11:37 | 55.03536 | -173.43501 | 35804 ft | 400 kts | 262° |
| 2026-04-20 11:38 | 55.02915 | -173.53141 | 35785 ft | 402 kts | 262° |
| 2026-04-20 11:38 | 55.02288 | -173.62846 | 35785 ft | 402 kts | 262° |
| 2026-04-20 11:39 | 55.01651 | -173.72520 | 35785 ft | 402 kts | 261° |
| 2026-04-20 11:39 | 55.01006 | -173.82212 | 35785 ft | 402 kts | 261° |
| 2026-04-20 11:40 | 55.00356 | -173.91899 | 35779 ft | 402 kts | 261° |
| 2026-04-20 11:40 | 54.99699 | -174.01532 | 35782 ft | 402 kts | 261° |
| 2026-04-20 11:41 | 54.99033 | -174.11204 | 35777 ft | 402 kts | 261° |
| 2026-04-20 11:41 | 54.98362 | -174.20806 | 35777 ft | 402 kts | 261° |
| 2026-04-20 11:42 | 54.97682 | -174.30460 | 35777 ft | 402 kts | 261° |
| 2026-04-20 11:42 | 54.96993 | -174.40119 | 35782 ft | 402 kts | 261° |
| 2026-04-20 11:43 | 54.96284 | -174.49804 | 35779 ft | 402 kts | 261° |
| 2026-04-20 11:43 | 54.95573 | -174.59451 | 35770 ft | 403 kts | 261° |
| 2026-04-20 11:44 | 54.94862 | -174.69062 | 35776 ft | 403 kts | 261° |
| 2026-04-20 11:44 | 54.94145 | -174.78720 | 35771 ft | 403 kts | 261° |
| 2026-04-20 11:45 | 54.93417 | -174.88402 | 35771 ft | 403 kts | 261° |
| 2026-04-20 11:45 | 54.92676 | -174.98085 | 35771 ft | 403 kts | 261° |
| 2026-04-20 11:46 | 54.91935 | -175.07697 | 35763 ft | 403 kts | 261° |
| 2026-04-20 11:46 | 54.91179 | -175.17369 | 35745 ft | 404 kts | 260° |
| 2026-04-20 11:47 | 54.90417 | -175.27035 | 35762 ft | 403 kts | 260° |
| 2026-04-20 11:47 | 54.89655 | -175.36673 | 35762 ft | 403 kts | 260° |
| 2026-04-20 11:48 | 54.88875 | -175.46310 | 35757 ft | 402 kts | 260° |
| 2026-04-20 11:48 | 54.88097 | -175.55950 | 35757 ft | 402 kts | 260° |
| 2026-04-20 11:49 | 54.87316 | -175.65522 | 35773 ft | 402 kts | 260° |
| 2026-04-20 11:49 | 54.86515 | -175.75146 | 35754 ft | 405 kts | 259° |
| 2026-04-20 11:50 | 54.85699 | -175.84832 | 35748 ft | 405 kts | 259° |
| 2026-04-20 11:50 | 54.84885 | -175.94500 | 35743 ft | 405 kts | 259° |
| 2026-04-20 11:51 | 54.84057 | -176.04144 | 35751 ft | 405 kts | 259° |
| 2026-04-20 11:51 | 54.83224 | -176.13838 | 35742 ft | 405 kts | 259° |
| 2026-04-20 11:52 | 54.82391 | -176.23455 | 35745 ft | 406 kts | 259° |
| 2026-04-20 11:52 | 54.81535 | -176.33160 | 35737 ft | 407 kts | 259° |
| 2026-04-20 11:53 | 54.80661 | -176.42897 | 35737 ft | 407 kts | 259° |
| 2026-04-20 11:53 | 54.79801 | -176.52553 | 35734 ft | 407 kts | 259° |
| 2026-04-20 11:54 | 54.78930 | -176.62238 | 35728 ft | 407 kts | 259° |
| 2026-04-20 11:54 | 54.78051 | -176.71897 | 35728 ft | 407 kts | 259° |
| 2026-04-20 11:55 | 54.77161 | -176.81580 | 35722 ft | 408 kts | 259° |
| 2026-04-20 11:55 | 54.76255 | -176.91324 | 35722 ft | 409 kts | 258° |
| 2026-04-20 11:56 | 54.75341 | -177.01043 | 35714 ft | 409 kts | 258° |
| 2026-04-20 11:56 | 54.74421 | -177.10764 | 35714 ft | 409 kts | 258° |
| 2026-04-20 11:57 | 54.73500 | -177.20444 | 35708 ft | 409 kts | 258° |
| 2026-04-20 11:57 | 54.72560 | -177.30181 | 35724 ft | 409 kts | 258° |
| 2026-04-20 11:58 | 54.71616 | -177.39917 | 35706 ft | 410 kts | 258° |
| 2026-04-20 11:58 | 54.70662 | -177.49630 | 35700 ft | 410 kts | 258° |
| 2026-04-20 11:59 | 54.69705 | -177.59316 | 35700 ft | 410 kts | 258° |
| 2026-04-20 11:59 | 54.68741 | -177.69057 | 35697 ft | 410 kts | 258° |
| 2026-04-20 12:00 | 54.67770 | -177.78725 | 35697 ft | 409 kts | 258° |
| 2026-04-20 12:00 | 54.66791 | -177.88385 | 35694 ft | 410 kts | 257° |
| 2026-04-20 12:01 | 54.65793 | -177.98119 | 35696 ft | 411 kts | 257° |
| 2026-04-20 12:01 | 54.64785 | -178.07824 | 35686 ft | 411 kts | 257° |
| 2026-04-20 12:02 | 54.63779 | -178.17578 | 35680 ft | 412 kts | 257° |
| 2026-04-20 12:02 | 54.62801 | -178.27270 | 35677 ft | 412 kts | 257° |
| 2026-04-20 12:03 | 54.61813 | -178.37025 | 35669 ft | 411 kts | 257° |
| 2026-04-20 12:03 | 54.60808 | -178.46769 | 35667 ft | 414 kts | 257° |
| 2026-04-20 12:04 | 54.59791 | -178.56500 | 35670 ft | 415 kts | 257° |
| 2026-04-20 12:04 | 54.58765 | -178.66294 | 35659 ft | 415 kts | 257° |
| 2026-04-20 12:05 | 54.57735 | -178.76059 | 35651 ft | 415 kts | 257° |
| 2026-04-20 12:05 | 54.56695 | -178.85833 | 35663 ft | 414 kts | 257° |
| 2026-04-20 12:06 | 54.55642 | -178.95596 | 35663 ft | 415 kts | 257° |
| 2026-04-20 12:06 | 54.54576 | -179.05422 | 35651 ft | 417 kts | 257° |
| 2026-04-20 12:07 | 54.53516 | -179.15188 | 35639 ft | 417 kts | 257° |
| 2026-04-20 12:07 | 54.52439 | -179.24989 | 35639 ft | 417 kts | 257° |
| 2026-04-20 12:08 | 54.51343 | -179.34807 | 35636 ft | 417 kts | 256° |
| 2026-04-20 12:08 | 54.50424 | -179.42958 | 35631 ft | 417 kts | 256° |
| 2026-04-20 12:09 | 54.49145 | -179.54362 | 35631 ft | 415 kts | 256° |
| 2026-04-20 12:09 | 54.48231 | -179.62495 | 35625 ft | 414 kts | 256° |
| 2026-04-20 12:10 | 54.47128 | -179.72154 | 35623 ft | 414 kts | 256° |
| 2026-04-20 12:10 | 54.46002 | -179.81909 | 35622 ft | 413 kts | 256° |
| 2026-04-20 12:11 | 54.44874 | -179.91596 | 35634 ft | 413 kts | 256° |
| 2026-04-20 12:11 | 54.43741 | 179.98726 | 35612 ft | 414 kts | 256° |
| 2026-04-20 12:12 | 54.42596 | 179.89006 | 35607 ft | 416 kts | 256° |
| 2026-04-20 12:12 | 54.41450 | 179.79311 | 35606 ft | 416 kts | 256° |
| 2026-04-20 12:13 | 54.40293 | 179.69571 | 35601 ft | 416 kts | 256° |
| 2026-04-20 12:13 | 54.39129 | 179.59897 | 35602 ft | 416 kts | 255° |
| 2026-04-20 12:14 | 54.37949 | 179.50178 | 35598 ft | 416 kts | 255° |
| 2026-04-20 12:14 | 54.36754 | 179.40437 | 35597 ft | 418 kts | 255° |
| 2026-04-20 12:15 | 54.35562 | 179.30717 | 35593 ft | 419 kts | 255° |
| 2026-04-20 12:15 | 54.34346 | 179.20895 | 35584 ft | 419 kts | 255° |
| 2026-04-20 12:16 | 54.33135 | 179.11177 | 35582 ft | 419 kts | 255° |
| 2026-04-20 12:16 | 54.31906 | 179.01400 | 35582 ft | 419 kts | 255° |
| 2026-04-20 12:17 | 54.30674 | 178.91622 | 35591 ft | 420 kts | 255° |
| 2026-04-20 12:17 | 54.29430 | 178.81850 | 35579 ft | 421 kts | 255° |
| 2026-04-20 12:18 | 54.28169 | 178.72041 | 35570 ft | 422 kts | 255° |
| 2026-04-20 12:18 | 54.26904 | 178.62281 | 35570 ft | 422 kts | 255° |
| 2026-04-20 12:19 | 54.25630 | 178.52483 | 35570 ft | 422 kts | 255° |
| 2026-04-20 12:19 | 54.24351 | 178.42720 | 35570 ft | 421 kts | 255° |
| 2026-04-20 12:20 | 54.23058 | 178.32975 | 35561 ft | 422 kts | 254° |
| 2026-04-20 12:20 | 54.21785 | 178.23161 | 35560 ft | 422 kts | 255° |
| 2026-04-20 12:21 | 54.20576 | 178.13341 | 35560 ft | 422 kts | 256° |
| 2026-04-20 12:21 | 54.19373 | 178.03556 | 35560 ft | 422 kts | 255° |
| 2026-04-20 12:22 | 54.18134 | 177.93718 | 35560 ft | 422 kts | 255° |
| 2026-04-20 12:22 | 54.16883 | 177.83914 | 35561 ft | 423 kts | 255° |
| 2026-04-20 12:23 | 54.15627 | 177.74145 | 35559 ft | 423 kts | 255° |
| 2026-04-20 12:23 | 54.14354 | 177.64319 | 35560 ft | 424 kts | 255° |
| 2026-04-20 12:24 | 54.13073 | 177.54511 | 35557 ft | 424 kts | 255° |
| 2026-04-20 12:24 | 54.11789 | 177.44704 | 35549 ft | 424 kts | 255° |
| 2026-04-20 12:25 | 54.10503 | 177.34931 | 35564 ft | 424 kts | 255° |
| 2026-04-20 12:25 | 54.09235 | 177.25410 | 35548 ft | 424 kts | 255° |
| 2026-04-20 12:26 | 54.07923 | 177.15571 | 35548 ft | 425 kts | 254° |
| 2026-04-20 12:26 | 54.06602 | 177.05788 | 35549 ft | 426 kts | 254° |
| 2026-04-20 12:27 | 54.05271 | 176.95971 | 35552 ft | 425 kts | 254° |
| 2026-04-20 12:27 | 54.03945 | 176.86210 | 35552 ft | 424 kts | 254° |
| 2026-04-20 12:28 | 54.02603 | 176.76417 | 35550 ft | 426 kts | 255° |
| 2026-04-20 12:28 | 54.01250 | 176.66604 | 35553 ft | 426 kts | 254° |
| 2026-04-20 12:29 | 53.99891 | 176.56820 | 35551 ft | 427 kts | 254° |
| 2026-04-20 12:29 | 53.98508 | 176.47015 | 35547 ft | 426 kts | 254° |
| 2026-04-20 12:30 | 53.97132 | 176.37253 | 35543 ft | 425 kts | 254° |
| 2026-04-20 12:30 | 53.95749 | 176.27481 | 35549 ft | 427 kts | 254° |
| 2026-04-20 12:31 | 53.94347 | 176.17650 | 35549 ft | 428 kts | 254° |
| 2026-04-20 12:31 | 53.92943 | 176.07832 | 35549 ft | 428 kts | 254° |
| 2026-04-20 12:32 | 53.91528 | 175.98051 | 35547 ft | 428 kts | 254° |
| 2026-04-20 12:32 | 53.90100 | 175.88289 | 35549 ft | 427 kts | 253° |
| 2026-04-20 12:33 | 53.88670 | 175.78521 | 35558 ft | 428 kts | 254° |
| 2026-04-20 12:33 | 53.87232 | 175.68742 | 35548 ft | 429 kts | 254° |
| 2026-04-20 12:34 | 53.85778 | 175.58918 | 35544 ft | 429 kts | 254° |
| 2026-04-20 12:34 | 53.84315 | 175.49084 | 35543 ft | 429 kts | 253° |
| 2026-04-20 12:35 | 53.82842 | 175.39307 | 35547 ft | 429 kts | 253° |
| 2026-04-20 12:35 | 53.81364 | 175.29543 | 35546 ft | 429 kts | 253° |
| 2026-04-20 12:36 | 53.79884 | 175.19764 | 35546 ft | 429 kts | 254° |
| 2026-04-20 12:36 | 53.78400 | 175.10013 | 35546 ft | 429 kts | 253° |
| 2026-04-20 12:37 | 53.76901 | 175.00238 | 35546 ft | 429 kts | 253° |
| 2026-04-20 12:37 | 53.75398 | 174.90533 | 35546 ft | 428 kts | 253° |
| 2026-04-20 12:38 | 53.73880 | 174.80782 | 35546 ft | 429 kts | 253° |
| 2026-04-20 12:38 | 53.72359 | 174.71076 | 35553 ft | 430 kts | 253° |
| 2026-04-20 12:39 | 53.70052 | 174.56457 | 35551 ft | 430 kts | 253° |
| 2026-04-20 12:40 | 53.68505 | 174.46715 | 35556 ft | 430 kts | 253° |
| 2026-04-20 12:40 | 53.66954 | 174.37002 | 35555 ft | 429 kts | 253° |
| 2026-04-20 12:41 | 53.65392 | 174.27264 | 35564 ft | 430 kts | 253° |
| 2026-04-20 12:41 | 53.63817 | 174.17525 | 35550 ft | 431 kts | 253° |
| 2026-04-20 12:42 | 53.62225 | 174.07748 | 35551 ft | 431 kts | 252° |
| 2026-04-20 12:42 | 53.60646 | 173.98062 | 35546 ft | 431 kts | 252° |
| 2026-04-20 12:43 | 53.59043 | 173.88335 | 35551 ft | 430 kts | 252° |
| 2026-04-20 12:43 | 53.57446 | 173.78687 | 35555 ft | 430 kts | 252° |
| 2026-04-20 12:44 | 53.55839 | 173.68975 | 35557 ft | 430 kts | 252° |
| 2026-04-20 12:44 | 53.54216 | 173.59253 | 35554 ft | 431 kts | 253° |
| 2026-04-20 12:45 | 53.53647 | 173.49283 | 35558 ft | 435 kts | 271° |
| 2026-04-20 12:45 | 53.54023 | 173.39092 | 35557 ft | 435 kts | 271° |
| 2026-04-20 12:46 | 53.54378 | 173.28934 | 35560 ft | 435 kts | 271° |
| 2026-04-20 12:46 | 53.54719 | 173.18782 | 35556 ft | 435 kts | 271° |
| 2026-04-20 12:47 | 53.55049 | 173.08628 | 35564 ft | 435 kts | 271° |
| 2026-04-20 12:47 | 53.55374 | 172.98510 | 35565 ft | 436 kts | 271° |
| 2026-04-20 12:48 | 53.55698 | 172.88273 | 35565 ft | 436 kts | 271° |
| 2026-04-20 12:48 | 53.56006 | 172.78107 | 35565 ft | 436 kts | 271° |
| 2026-04-20 12:49 | 53.56301 | 172.67944 | 35569 ft | 437 kts | 271° |
| 2026-04-20 12:49 | 53.56602 | 172.57695 | 35570 ft | 437 kts | 271° |
| 2026-04-20 12:50 | 53.56891 | 172.47505 | 35574 ft | 437 kts | 270° |
| 2026-04-20 12:50 | 53.57165 | 172.37263 | 35574 ft | 437 kts | 271° |
| 2026-04-20 12:51 | 53.57430 | 172.27060 | 35573 ft | 437 kts | 271° |
| 2026-04-20 12:51 | 53.57692 | 172.16818 | 35573 ft | 438 kts | 270° |
| 2026-04-20 12:52 | 53.57937 | 172.06591 | 35580 ft | 438 kts | 270° |
| 2026-04-20 12:52 | 53.58173 | 171.96382 | 35579 ft | 438 kts | 270° |
| 2026-04-20 12:53 | 53.58411 | 171.86113 | 35585 ft | 438 kts | 270° |
| 2026-04-20 12:53 | 53.58632 | 171.75887 | 35585 ft | 438 kts | 270° |
| 2026-04-20 12:54 | 53.58853 | 171.65603 | 35594 ft | 438 kts | 270° |
| 2026-04-20 12:54 | 53.59063 | 171.55389 | 35590 ft | 438 kts | 270° |
| 2026-04-20 12:55 | 53.59260 | 171.45096 | 35597 ft | 438 kts | 270° |
| 2026-04-20 12:55 | 53.59451 | 171.34894 | 35599 ft | 438 kts | 270° |
| 2026-04-20 12:56 | 53.59632 | 171.24606 | 35602 ft | 438 kts | 270° |
| 2026-04-20 12:56 | 53.59808 | 171.14393 | 35609 ft | 438 kts | 270° |
| 2026-04-20 12:57 | 53.59970 | 171.04132 | 35606 ft | 437 kts | 270° |
| 2026-04-20 12:57 | 53.60092 | 170.95587 | 35606 ft | 438 kts | 270° |
| 2026-04-20 12:58 | 53.60239 | 170.85327 | 35614 ft | 437 kts | 270° |
| 2026-04-20 12:58 | 53.60384 | 170.75144 | 35617 ft | 437 kts | 270° |
| 2026-04-20 12:59 | 53.60512 | 170.64876 | 35617 ft | 437 kts | 270° |
| 2026-04-20 12:59 | 53.60628 | 170.54630 | 35624 ft | 438 kts | 270° |
| 2026-04-20 13:00 | 53.60735 | 170.44414 | 35625 ft | 438 kts | 270° |
| 2026-04-20 13:00 | 53.60845 | 170.34122 | 35633 ft | 438 kts | 270° |
| 2026-04-20 13:01 | 53.60950 | 170.23853 | 35634 ft | 438 kts | 270° |
| 2026-04-20 13:01 | 53.61033 | 170.13591 | 35641 ft | 438 kts | 270° |
| 2026-04-20 13:02 | 53.61106 | 170.03368 | 35642 ft | 438 kts | 270° |
| 2026-04-20 13:02 | 53.61172 | 169.93100 | 35649 ft | 437 kts | 269° |
| 2026-04-20 13:03 | 53.61229 | 169.82882 | 35646 ft | 438 kts | 269° |
| 2026-04-20 13:03 | 53.61284 | 169.72590 | 35656 ft | 437 kts | 270° |
| 2026-04-20 13:04 | 53.61327 | 169.62393 | 35655 ft | 438 kts | 269° |
| 2026-04-20 13:04 | 53.61353 | 169.52116 | 35660 ft | 438 kts | 269° |
| 2026-04-20 13:05 | 53.61377 | 169.41909 | 35665 ft | 438 kts | 269° |
| 2026-04-20 13:05 | 53.61400 | 169.31616 | 35669 ft | 438 kts | 269° |
| 2026-04-20 13:06 | 53.61404 | 169.21405 | 35669 ft | 438 kts | 269° |
| 2026-04-20 13:06 | 53.61397 | 169.11173 | 35683 ft | 438 kts | 269° |
| 2026-04-20 13:07 | 53.61386 | 169.00912 | 35684 ft | 437 kts | 269° |
| 2026-04-20 13:07 | 53.61373 | 168.90651 | 35690 ft | 438 kts | 269° |
| 2026-04-20 13:08 | 53.61351 | 168.80435 | 35685 ft | 437 kts | 269° |
| 2026-04-20 13:08 | 53.61313 | 168.70169 | 35701 ft | 438 kts | 269° |
| 2026-04-20 13:09 | 53.61265 | 168.59963 | 35702 ft | 437 kts | 269° |
| 2026-04-20 13:09 | 53.61208 | 168.49677 | 35719 ft | 437 kts | 269° |
| 2026-04-20 13:10 | 53.61148 | 168.39460 | 35717 ft | 437 kts | 269° |
| 2026-04-20 13:10 | 53.61075 | 168.29476 | 35721 ft | 437 kts | 269° |
| 2026-04-20 13:11 | 53.60996 | 168.19229 | 35721 ft | 437 kts | 269° |
| 2026-04-20 13:11 | 53.60904 | 168.08998 | 35788 ft | 436 kts | 268° |
| 2026-04-20 13:12 | 53.60809 | 167.98700 | 34273 ft | 438 kts | 269° |
| 2026-04-20 13:12 | 53.60761 | 167.93621 | 34987 ft | 430 kts | 269° |
| 2026-04-20 13:12 | 53.60709 | 167.88621 | 35659 ft | 425 kts | 269° |
| 2026-04-20 13:12 | 53.60653 | 167.83666 | 36215 ft | 422 kts | 269° |
| 2026-04-20 13:13 | 53.60596 | 167.78778 | 36697 ft | 421 kts | 269° |
| 2026-04-20 13:13 | 53.60538 | 167.73842 | 37155 ft | 420 kts | 269° |
| 2026-04-20 13:13 | 53.60477 | 167.68947 | 37686 ft | 417 kts | 269° |
| 2026-04-20 13:13 | 53.60412 | 167.64044 | 37943 ft | 417 kts | 269° |
| 2026-04-20 13:14 | 53.60347 | 167.59167 | 38006 ft | 416 kts | 269° |
| 2026-04-20 13:14 | 53.60214 | 167.49567 | 39658 ft | 408 kts | 268° |
| 2026-04-20 13:14 | 53.60143 | 167.44783 | 38928 ft | 420 kts | 269° |
| 2026-04-20 13:15 | 53.60068 | 167.39801 | 38276 ft | 428 kts | 269° |
| 2026-04-20 13:15 | 53.59994 | 167.34784 | 37849 ft | 428 kts | 268° |
| 2026-04-20 13:15 | 53.59920 | 167.29762 | 37727 ft | 430 kts | 268° |
| 2026-04-20 13:16 | 53.59765 | 167.19629 | 37772 ft | 433 kts | 268° |
| 2026-04-20 13:16 | 53.59589 | 167.09545 | 37769 ft | 433 kts | 268° |
| 2026-04-20 13:17 | 53.59402 | 166.99369 | 37778 ft | 433 kts | 268° |
| 2026-04-20 13:17 | 53.59215 | 166.89278 | 37780 ft | 433 kts | 268° |
| 2026-04-20 13:18 | 53.59015 | 166.79136 | 37791 ft | 433 kts | 268° |
| 2026-04-20 13:18 | 53.58814 | 166.68982 | 37791 ft | 433 kts | 268° |
| 2026-04-20 13:19 | 53.58602 | 166.58906 | 37799 ft | 433 kts | 268° |
| 2026-04-20 13:19 | 53.58374 | 166.48778 | 37802 ft | 433 kts | 268° |
| 2026-04-20 13:20 | 53.58145 | 166.38674 | 37816 ft | 433 kts | 268° |
| 2026-04-20 13:20 | 53.57905 | 166.28532 | 37811 ft | 432 kts | 268° |
| 2026-04-20 13:21 | 53.57656 | 166.18473 | 37815 ft | 432 kts | 268° |
| 2026-04-20 13:21 | 53.57397 | 166.08372 | 37816 ft | 432 kts | 268° |
| 2026-04-20 13:22 | 53.57129 | 165.98248 | 37828 ft | 432 kts | 268° |
| 2026-04-20 13:22 | 53.56859 | 165.88183 | 37821 ft | 432 kts | 268° |
| 2026-04-20 13:23 | 53.56578 | 165.78060 | 37827 ft | 432 kts | 268° |
| 2026-04-20 13:23 | 53.56288 | 165.67930 | 37833 ft | 432 kts | 268° |
| 2026-04-20 13:24 | 53.55986 | 165.57908 | 37830 ft | 432 kts | 268° |
| 2026-04-20 13:24 | 53.55680 | 165.47781 | 37838 ft | 432 kts | 268° |
| 2026-04-20 13:25 | 53.55378 | 165.37713 | 37843 ft | 432 kts | 268° |
| 2026-04-20 13:25 | 53.55053 | 165.27668 | 37848 ft | 431 kts | 268° |
| 2026-04-20 13:26 | 53.54708 | 165.17556 | 37850 ft | 431 kts | 268° |
| 2026-04-20 13:26 | 53.54358 | 165.07535 | 37857 ft | 431 kts | 268° |
| 2026-04-20 13:27 | 53.54009 | 164.97485 | 37860 ft | 431 kts | 268° |
| 2026-04-20 13:27 | 53.53662 | 164.87420 | 37860 ft | 430 kts | 268° |
| 2026-04-20 13:28 | 53.53305 | 164.77414 | 37850 ft | 431 kts | 268° |
| 2026-04-20 13:28 | 53.52919 | 164.67342 | 37853 ft | 431 kts | 267° |
| 2026-04-20 13:29 | 53.52521 | 164.57279 | 37850 ft | 432 kts | 268° |
| 2026-04-20 13:29 | 53.52132 | 164.47245 | 37851 ft | 432 kts | 268° |
| 2026-04-20 13:30 | 53.51743 | 164.37131 | 37856 ft | 432 kts | 268° |
| 2026-04-20 13:30 | 53.51338 | 164.27068 | 37864 ft | 432 kts | 268° |
| 2026-04-20 13:31 | 53.50919 | 164.16995 | 37869 ft | 432 kts | 267° |
| 2026-04-20 13:31 | 53.50491 | 164.06983 | 37871 ft | 432 kts | 267° |
| 2026-04-20 13:32 | 53.50051 | 163.96943 | 37877 ft | 431 kts | 267° |
| 2026-04-20 13:32 | 53.49612 | 163.86882 | 37877 ft | 431 kts | 267° |
| 2026-04-20 13:33 | 53.49164 | 163.76888 | 37864 ft | 431 kts | 267° |
| 2026-04-20 13:33 | 53.48700 | 163.66794 | 37880 ft | 431 kts | 267° |
| 2026-04-20 13:34 | 53.48234 | 163.56781 | 37889 ft | 431 kts | 268° |
| 2026-04-20 13:34 | 53.47767 | 163.46807 | 37891 ft | 431 kts | 268° |
| 2026-04-20 13:35 | 53.47279 | 163.36734 | 37888 ft | 430 kts | 267° |
| 2026-04-20 13:35 | 53.46796 | 163.26776 | 37888 ft | 430 kts | 267° |
| 2026-04-20 13:36 | 53.46298 | 163.16739 | 37903 ft | 430 kts | 267° |
| 2026-04-20 13:36 | 53.45784 | 163.06787 | 37905 ft | 430 kts | 266° |
| 2026-04-20 13:37 | 53.45261 | 162.96794 | 37912 ft | 429 kts | 267° |
| 2026-04-20 13:37 | 53.44736 | 162.86818 | 37912 ft | 429 kts | 267° |
| 2026-04-20 13:38 | 53.44203 | 162.76821 | 37919 ft | 429 kts | 267° |
| 2026-04-20 13:38 | 53.43664 | 162.66859 | 37919 ft | 429 kts | 267° |
| 2026-04-20 13:39 | 53.43114 | 162.56968 | 37930 ft | 428 kts | 267° |
| 2026-04-20 13:39 | 53.42561 | 162.47025 | 37929 ft | 428 kts | 266° |
| 2026-04-20 13:40 | 53.42000 | 162.37100 | 37939 ft | 427 kts | 267° |
| 2026-04-20 13:40 | 53.41429 | 162.27191 | 37934 ft | 427 kts | 266° |
| 2026-04-20 13:41 | 53.40850 | 162.17277 | 37926 ft | 427 kts | 267° |
| 2026-04-20 13:41 | 53.40267 | 162.07374 | 37933 ft | 427 kts | 267° |
| 2026-04-20 13:42 | 53.39677 | 161.97517 | 37931 ft | 428 kts | 266° |
| 2026-04-20 13:42 | 53.38769 | 161.82612 | 37928 ft | 429 kts | 267° |
| 2026-04-20 13:43 | 53.38139 | 161.72651 | 37934 ft | 430 kts | 266° |
| 2026-04-20 13:43 | 53.37510 | 161.62661 | 37925 ft | 430 kts | 266° |
| 2026-04-20 13:44 | 53.36880 | 161.52749 | 37940 ft | 431 kts | 266° |
| 2026-04-20 13:44 | 53.36341 | 161.44434 | 37945 ft | 431 kts | 266° |
| 2026-04-20 13:45 | 53.35688 | 161.34430 | 37951 ft | 431 kts | 266° |
| 2026-04-20 13:45 | 53.35032 | 161.24526 | 37954 ft | 431 kts | 266° |
| 2026-04-20 13:46 | 53.34360 | 161.14568 | 37955 ft | 430 kts | 265° |
| 2026-04-20 13:46 | 53.33678 | 161.04612 | 37958 ft | 430 kts | 265° |
| 2026-04-20 13:47 | 53.33332 | 160.99634 | 37710 ft | 432 kts | 265° |
| 2026-04-20 13:47 | 53.32982 | 160.94564 | 36637 ft | 438 kts | 265° |
| 2026-04-20 13:47 | 53.32631 | 160.89499 | 35783 ft | 437 kts | 265° |
| 2026-04-20 13:47 | 53.32286 | 160.84526 | 35051 ft | 433 kts | 266° |
| 2026-04-20 13:48 | 53.31939 | 160.79569 | 34367 ft | 427 kts | 266° |
| 2026-04-20 13:48 | 53.31588 | 160.74658 | 33637 ft | 421 kts | 266° |
| 2026-04-20 13:48 | 53.31238 | 160.69793 | 32992 ft | 418 kts | 266° |
| 2026-04-20 13:48 | 53.30893 | 160.64987 | 32432 ft | 414 kts | 266° |
| 2026-04-20 13:49 | 53.30554 | 160.60240 | 31900 ft | 407 kts | 266° |
| 2026-04-20 13:49 | 53.30226 | 160.55552 | 31386 ft | 404 kts | 266° |
| 2026-04-20 13:49 | 53.29906 | 160.50961 | 30873 ft | 401 kts | 266° |
| 2026-04-20 13:49 | 53.29571 | 160.46356 | 30371 ft | 398 kts | 266° |
| 2026-04-20 13:50 | 53.29229 | 160.41793 | 29837 ft | 394 kts | 265° |
| 2026-04-20 13:50 | 53.28886 | 160.37269 | 29230 ft | 390 kts | 265° |
| 2026-04-20 13:50 | 53.28546 | 160.32777 | 28622 ft | 385 kts | 265° |
| 2026-04-20 13:50 | 53.28211 | 160.28347 | 28042 ft | 381 kts | 265° |
| 2026-04-20 13:51 | 53.27880 | 160.23956 | 27463 ft | 382 kts | 265° |
| 2026-04-20 13:51 | 53.27551 | 160.19591 | 26906 ft | 383 kts | 265° |
| 2026-04-20 13:51 | 53.27218 | 160.15185 | 26347 ft | 383 kts | 265° |
| 2026-04-20 13:51 | 53.26883 | 160.10786 | 26004 ft | 376 kts | 265° |
| 2026-04-20 13:52 | 53.26553 | 160.06528 | 25967 ft | 366 kts | 265° |
| 2026-04-20 13:52 | 53.26225 | 160.02300 | 25978 ft | 365 kts | 265° |
| 2026-04-20 13:52 | 53.25686 | 159.98188 | 25979 ft | 367 kts | 255° |
| 2026-04-20 13:52 | 53.24833 | 159.94125 | 25936 ft | 367 kts | 253° |
| 2026-04-20 13:53 | 53.23984 | 159.90100 | 25521 ft | 367 kts | 253° |
| 2026-04-20 13:53 | 53.23141 | 159.86096 | 25096 ft | 365 kts | 253° |
| 2026-04-20 13:53 | 53.22313 | 159.82171 | 24829 ft | 361 kts | 253° |
| 2026-04-20 13:53 | 53.21478 | 159.78216 | 24533 ft | 358 kts | 253° |
| 2026-04-20 13:54 | 53.20653 | 159.74305 | 24234 ft | 356 kts | 253° |
| 2026-04-20 13:54 | 53.19828 | 159.70405 | 23938 ft | 354 kts | 253° |
| 2026-04-20 13:54 | 53.19007 | 159.66542 | 23662 ft | 352 kts | 253° |
| 2026-04-20 13:54 | 53.18188 | 159.62703 | 23341 ft | 351 kts | 253° |
| 2026-04-20 13:55 | 53.17370 | 159.58880 | 22985 ft | 349 kts | 252° |
| 2026-04-20 13:55 | 53.16565 | 159.55119 | 22644 ft | 347 kts | 252° |
| 2026-04-20 13:55 | 53.15752 | 159.51338 | 22302 ft | 345 kts | 252° |
| 2026-04-20 13:55 | 53.14943 | 159.47586 | 21962 ft | 343 kts | 252° |
| 2026-04-20 13:56 | 53.14136 | 159.43844 | 21622 ft | 341 kts | 252° |
| 2026-04-20 13:56 | 53.13342 | 159.40164 | 21308 ft | 339 kts | 252° |
| 2026-04-20 13:56 | 53.12556 | 159.36506 | 20985 ft | 337 kts | 252° |
| 2026-04-20 13:56 | 53.11762 | 159.32811 | 20659 ft | 335 kts | 252° |
| 2026-04-20 13:57 | 53.10974 | 159.29163 | 20346 ft | 334 kts | 252° |
| 2026-04-20 13:57 | 53.10194 | 159.25563 | 20033 ft | 332 kts | 252° |
| 2026-04-20 13:57 | 53.09412 | 159.21963 | 19719 ft | 330 kts | 252° |
| 2026-04-20 13:57 | 53.08630 | 159.18375 | 19383 ft | 329 kts | 252° |
| 2026-04-20 13:58 | 53.07848 | 159.14802 | 19094 ft | 327 kts | 252° |
| 2026-04-20 13:58 | 53.07068 | 159.11243 | 18791 ft | 326 kts | 252° |
| 2026-04-20 13:58 | 53.06294 | 159.07711 | 18491 ft | 324 kts | 251° |
| 2026-04-20 13:58 | 53.05530 | 159.04229 | 18189 ft | 323 kts | 251° |
| 2026-04-20 13:59 | 53.04756 | 159.00714 | 17840 ft | 321 kts | 251° |
| 2026-04-20 13:59 | 53.03991 | 158.97244 | 17493 ft | 319 kts | 251° |
| 2026-04-20 13:59 | 53.03229 | 158.93790 | 17145 ft | 318 kts | 251° |
| 2026-04-20 13:59 | 53.02472 | 158.90376 | 16833 ft | 316 kts | 251° |
| 2026-04-20 14:00 | 53.01716 | 158.86965 | 16504 ft | 314 kts | 251° |
| 2026-04-20 14:00 | 53.01064 | 158.83520 | 16171 ft | 311 kts | 261° |
| 2026-04-20 14:00 | 53.00904 | 158.79971 | 15852 ft | 307 kts | 275° |
| 2026-04-20 14:00 | 53.01255 | 158.76489 | 15529 ft | 303 kts | 288° |
| 2026-04-20 14:01 | 53.02065 | 158.73302 | 15216 ft | 300 kts | 300° |
| 2026-04-20 14:01 | 53.03080 | 158.70303 | 14895 ft | 299 kts | 301° |
| 2026-04-20 14:01 | 53.04096 | 158.67283 | 14587 ft | 296 kts | 300° |
| 2026-04-20 14:01 | 53.05088 | 158.64315 | 14283 ft | 294 kts | 300° |
| 2026-04-20 14:02 | 53.06080 | 158.61339 | 13979 ft | 293 kts | 300° |
| 2026-04-20 14:02 | 53.07067 | 158.58370 | 13661 ft | 292 kts | 300° |
| 2026-04-20 14:02 | 53.08048 | 158.55416 | 13318 ft | 291 kts | 300° |
| 2026-04-20 14:02 | 53.09020 | 158.52497 | 12982 ft | 290 kts | 300° |
| 2026-04-20 14:03 | 53.10003 | 158.49545 | 12636 ft | 289 kts | 300° |
| 2026-04-20 14:03 | 53.10723 | 158.47378 | 12397 ft | 288 kts | 300° |
| 2026-04-20 14:03 | 53.10948 | 158.46703 | 12319 ft | 288 kts | 300° |
| 2026-04-20 14:03 | 53.11905 | 158.43823 | 11994 ft | 286 kts | 299° |
| 2026-04-20 14:04 | 53.12139 | 158.43119 | 11910 ft | 286 kts | 299° |
| 2026-04-20 14:04 | 53.13100 | 158.40223 | 11635 ft | 284 kts | 299° |
| 2026-04-20 14:04 | 53.14053 | 158.37337 | 11446 ft | 284 kts | 299° |
| 2026-04-20 14:04 | 53.15007 | 158.34436 | 11258 ft | 283 kts | 299° |
| 2026-04-20 14:05 | 53.15943 | 158.31592 | 11070 ft | 282 kts | 299° |
| 2026-04-20 14:05 | 53.16887 | 158.28730 | 10892 ft | 282 kts | 299° |
| 2026-04-20 14:05 | 53.17834 | 158.25866 | 10704 ft | 281 kts | 299° |
| 2026-04-20 14:05 | 53.18774 | 158.23012 | 10534 ft | 280 kts | 299° |
| 2026-04-20 14:06 | 53.19710 | 158.20168 | 10350 ft | 279 kts | 299° |
| 2026-04-20 14:06 | 53.20637 | 158.17344 | 10171 ft | 279 kts | 298° |
| 2026-04-20 14:06 | 53.21567 | 158.14498 | 9990 ft | 278 kts | 298° |
| 2026-04-20 14:06 | 53.22492 | 158.11664 | 9806 ft | 278 kts | 298° |
| 2026-04-20 14:07 | 53.23420 | 158.08822 | 9607 ft | 276 kts | 298° |
| 2026-04-20 14:07 | 53.24503 | 158.06252 | 9408 ft | 273 kts | 315° |
| 2026-04-20 14:07 | 53.26073 | 158.04457 | 9205 ft | 273 kts | 336° |
| 2026-04-20 14:07 | 53.27914 | 158.03733 | 9008 ft | 273 kts | 357° |
| 2026-04-20 14:08 | 53.29788 | 158.04138 | 8814 ft | 273 kts | 14° |
| 2026-04-20 14:08 | 53.31610 | 158.04938 | 8622 ft | 272 kts | 14° |
| 2026-04-20 14:08 | 53.33440 | 158.05738 | 8434 ft | 271 kts | 14° |
| 2026-04-20 14:08 | 53.35238 | 158.06519 | 8237 ft | 262 kts | 14° |
| 2026-04-20 14:09 | 53.36986 | 158.07278 | 8069 ft | 253 kts | 14° |
| 2026-04-20 14:09 | 53.38666 | 158.08007 | 7909 ft | 246 kts | 14° |
| 2026-04-20 14:09 | 53.40244 | 158.08957 | 7739 ft | 238 kts | 32° |
| 2026-04-20 14:09 | 53.41382 | 158.10840 | 7578 ft | 231 kts | 59° |
| 2026-04-20 14:10 | 53.41884 | 158.13352 | 7417 ft | 225 kts | 84° |
| 2026-04-20 14:10 | 53.41957 | 158.15926 | 7258 ft | 218 kts | 87° |
| 2026-04-20 14:10 | 53.42024 | 158.18419 | 7104 ft | 211 kts | 86° |
| 2026-04-20 14:10 | 53.42093 | 158.20833 | 6961 ft | 203 kts | 86° |
| 2026-04-20 14:11 | 53.42162 | 158.23189 | 6519 ft | 204 kts | 86° |
| 2026-04-20 14:11 | 53.42137 | 158.25567 | 5887 ft | 210 kts | 103° |
| 2026-04-20 14:11 | 53.41411 | 158.27704 | 5254 ft | 218 kts | 136° |
| 2026-04-20 14:11 | 53.40068 | 158.28936 | 4631 ft | 224 kts | 158° |
| 2026-04-20 14:12 | 53.38605 | 158.29921 | 4004 ft | 228 kts | 157° |
| 2026-04-20 14:12 | 53.37130 | 158.30952 | 3486 ft | 226 kts | 156° |
| 2026-04-20 14:12 | 53.35748 | 158.31944 | 3406 ft | 206 kts | 156° |
| 2026-04-20 14:12 | 53.34479 | 158.32842 | 3340 ft | 193 kts | 156° |
| 2026-04-20 14:13 | 53.33256 | 158.33700 | 3144 ft | 190 kts | 157° |
| 2026-04-20 14:13 | 53.32053 | 158.34541 | 2934 ft | 184 kts | 157° |
| 2026-04-20 14:13 | 53.30870 | 158.35368 | 2686 ft | 182 kts | 157° |
| 2026-04-20 14:13 | 53.29716 | 158.36173 | 2454 ft | 180 kts | 158° |
| 2026-04-20 14:14 | 53.28567 | 158.36975 | 2173 ft | 178 kts | 157° |
| 2026-04-20 14:14 | 53.27437 | 158.37763 | 2000 ft | 172 kts | 158° |
| 2026-04-20 14:14 | 53.26367 | 158.38509 | 1720 ft | 163 kts | 158° |
| 2026-04-20 14:14 | 53.25357 | 158.39213 | 1489 ft | 152 kts | 158° |
| 2026-04-20 14:15 | 53.24415 | 158.39869 | 1296 ft | 141 kts | 158° |
| 2026-04-20 14:15 | 53.23537 | 158.40479 | 1136 ft | 132 kts | 158° |
| 2026-04-20 14:15 | 53.22704 | 158.41059 | 980 ft | 129 kts | 158° |
| 2026-04-20 14:15 | 53.21895 | 158.41621 | 837 ft | 122 kts | 158° |
| 2026-04-20 14:16 | 53.21121 | 158.42159 | 693 ft | 118 kts | 158° |
| 2026-04-20 14:16 | 53.20375 | 158.42677 | 557 ft | 116 kts | 158° |
| 2026-04-20 14:16 | 53.19631 | 158.43194 | 413 ft | 116 kts | 158° |
| 2026-04-20 14:16 | 53.18889 | 158.43710 | 326 ft | 115 kts | 158° |
| 2026-04-20 14:17 | 53.18149 | 158.44224 | 144 ft | 114 kts | 158° |
| 2026-04-20 14:17 | 53.17487 | 158.44683 | 129 ft | 90 kts | 157° |
| 2026-04-20 14:17 | 53.17065 | 158.44974 | 122 ft | 45 kts | 157° |
| 2026-04-20 14:17 | 53.16774 | 158.45176 | 126 ft | 48 kts | 156° |
| 2026-04-20 14:18 | 53.16498 | 158.45367 | 123 ft | 45 kts | 157° |
| 2026-04-20 14:18 | 53.16227 | 158.45554 | 123 ft | 31 kts | 156° |
| 2026-04-20 14:18 | 53.16103 | 158.45577 | 124 ft | 18 kts | 230° |
| 2026-04-20 14:18 | 53.16071 | 158.45361 | 123 ft | 20 kts | 305° |
| 2026-04-20 14:19 | 53.16197 | 158.45267 | 121 ft | 16 kts | 338° |
| 2026-04-20 14:19 | 53.16298 | 158.45198 | 121 ft | 13 kts | 337° |
| 2026-04-20 14:19 | 53.16398 | 158.45129 | 122 ft | 16 kts | 338° |
| 2026-04-20 14:19 | 53.16495 | 158.45060 | 121 ft | 17 kts | 337° |
| 2026-04-20 14:20 | 53.16622 | 158.44973 | 123 ft | 22 kts | 338° |
| 2026-04-20 14:20 | 53.16741 | 158.44891 | 120 ft | 17 kts | 338° |
| 2026-04-20 14:20 | 53.16759 | 158.44878 | 121 ft | 0 kts | 337° |
| 2026-04-20 14:20 | 53.16762 | 158.44876 | 123 ft | 2 kts | 337° |
| 2026-04-20 14:21 | 53.16795 | 158.44853 | 119 ft | 8 kts | 337° |
| 2026-04-20 14:21 | 53.16859 | 158.44808 | 122 ft | 12 kts | 339° |
| 2026-04-20 14:21 | 53.16951 | 158.44746 | 121 ft | 18 kts | 336° |
| 2026-04-20 14:21 | 53.17082 | 158.44655 | 122 ft | 23 kts | 338° |
| 2026-04-20 14:22 | 53.17230 | 158.44552 | 122 ft | 21 kts | 337° |
| 2026-04-20 14:22 | 53.17355 | 158.44466 | 122 ft | 20 kts | 337° |
| 2026-04-20 14:22 | 53.17469 | 158.44386 | 122 ft | 17 kts | 337° |
| 2026-04-20 14:22 | 53.17515 | 158.44265 | 119 ft | 16 kts | 250° |
| 2026-04-20 14:23 | 53.17466 | 158.44064 | 121 ft | 18 kts | 247° |
| 2026-04-20 14:23 | 53.17401 | 158.43871 | 121 ft | 20 kts | 239° |
| 2026-04-20 14:23 | 53.17338 | 158.43691 | 184 ft | 18 kts | 240° |
| 2026-04-20 14:23 | 53.17276 | 158.43514 | 223 ft | 18 kts | 239° |
| 2026-04-20 14:24 | 53.17208 | 158.43321 | 218 ft | 16 kts | 239° |
| 2026-04-20 14:24 | 53.17146 | 158.43144 | 219 ft | 17 kts | 239° |
| 2026-04-20 14:24 | 53.17093 | 158.42994 | 218 ft | 14 kts | 240° |
| 2026-04-20 14:24 | 53.17049 | 158.42868 | 219 ft | 14 kts | 239° |
| 2026-04-20 14:25 | 53.17011 | 158.42714 | 220 ft | 6 kts | 257° |
| 2026-04-20 14:25 | 53.17008 | 158.42688 | 222 ft | 4 kts | 258° |
| 2026-04-20 14:25 | 53.16991 | 158.42633 | 223 ft | 5 kts | 240° |
| 2026-04-20 14:25 | 53.16985 | 158.42614 | 223 ft | 0 kts | 239° |